Time;durP1;ratioP1;P1;durP2;ratioP2;P2;SDS_P1;SDS_P2;PMS_P1;PMS_P2;Temp;Humidity;BMP_temperature;BMP_pressure;BME280_temperature;BME280_humidity;BME280_pressure;Samples;Min_cycle;Max_cycle;Signal;HPM_P1;HPM_P2
2023/11/20 00:01:21;;;;;;;;;;;20.90;37.10;;;;;;5114318;28;20026;-54
2023/11/20 00:03:50;;;;;;;;;;;20.80;37.00;;;;;;5113918;28;19931;-51
2023/11/20 00:06:18;;;;;;;;;;;20.90;37.10;;;;;;5113739;28;19930;-53
2023/11/20 00:08:45;;;;;;;;;;;20.80;37.00;;;;;;5114156;28;19950;-50
2023/11/20 00:11:16;;;;;;;;;;;20.90;37.10;;;;;;5113513;28;19923;-51
2023/11/20 00:13:44;;;;;;;;;;;20.90;37.10;;;;;;5113661;28;19924;-50
2023/11/20 00:16:12;;;;;;;;;;;20.90;37.10;;;;;;5113380;28;19928;-49
2023/11/20 00:18:39;;;;;;;;;;;20.80;37.00;;;;;;5113483;28;19923;-51
2023/11/20 00:21:07;;;;;;;;;;;20.80;37.10;;;;;;5114012;28;20326;-53
2023/11/20 00:23:34;;;;;;;;;;;20.90;37.10;;;;;;5113432;28;19981;-55
2023/11/20 00:26:01;;;;;;;;;;;20.90;37.10;;;;;;5113837;28;20217;-51
2023/11/20 00:28:31;;;;;;;;;;;20.90;37.10;;;;;;5116434;28;19969;-51
2023/11/20 00:30:58;;;;;;;;;;;20.80;37.10;;;;;;5117770;28;20337;-53
2023/11/20 00:33:27;;;;;;;;;;;20.80;37.10;;;;;;5117591;28;20369;-52
2023/11/20 00:35:54;;;;;;;;;;;20.80;37.10;;;;;;5117205;28;19923;-55
2023/11/20 00:38:21;;;;;;;;;;;20.80;37.10;;;;;;5117652;28;19924;-53
2023/11/20 00:40:48;;;;;;;;;;;20.80;37.10;;;;;;5117311;28;19924;-52
2023/11/20 00:43:16;;;;;;;;;;;20.80;37.10;;;;;;5117355;28;19924;-51
2023/11/20 00:45:43;;;;;;;;;;;20.80;37.10;;;;;;5117263;28;19954;-53
2023/11/20 00:48:11;;;;;;;;;;;20.80;37.10;;;;;;5117351;28;19927;-53
2023/11/20 00:50:38;;;;;;;;;;;20.80;37.10;;;;;;5116724;28;19930;-55
2023/11/20 00:53:05;;;;;;;;;;;20.80;37.10;;;;;;5116761;28;19923;-54
2023/11/20 00:55:32;;;;;;;;;;;20.80;37.10;;;;;;5116888;28;20376;-53
2023/11/20 00:57:59;;;;;;;;;;;20.80;37.10;;;;;;5116967;28;19928;-53
2023/11/20 01:00:26;;;;;;;;;;;20.80;37.10;;;;;;5117279;28;19946;-52
2023/11/20 01:02:54;;;;;;;;;;;20.80;37.10;;;;;;5117121;28;20359;-52
2023/11/20 01:05:22;;;;;;;;;;;20.80;37.10;;;;;;5117133;28;19924;-54
2023/11/20 01:07:49;;;;;;;;;;;20.80;37.10;;;;;;5098881;28;19924;-52
2023/11/20 01:10:16;;;;;;;;;;;20.80;37.10;;;;;;5116877;28;19930;-52
2023/11/20 01:12:43;;;;;;;;;;;20.80;37.10;;;;;;5116773;28;20380;-51
2023/11/20 01:15:10;;;;;;;;;;;20.80;37.10;;;;;;5116906;28;19924;-54
2023/11/20 01:17:37;;;;;;;;;;;20.80;37.20;;;;;;5116585;28;20363;-55
2023/11/20 01:20:04;;;;;;;;;;;20.80;37.10;;;;;;5116732;28;19993;-52
2023/11/20 01:22:31;;;;;;;;;;;20.80;37.20;;;;;;5116824;28;19977;-55
2023/11/20 01:24:58;;;;;;;;;;;20.80;37.20;;;;;;5116502;28;19923;-63
2023/11/20 01:27:26;;;;;;;;;;;20.80;37.20;;;;;;5116795;28;19923;-58
2023/11/20 01:29:54;;;;;;;;;;;20.80;37.30;;;;;;5115930;28;20284;-60
2023/11/20 01:32:21;;;;;;;;;;;20.80;37.20;;;;;;5116196;28;19971;-54
2023/11/20 01:34:48;;;;;;;;;;;20.80;37.20;;;;;;5116599;28;19927;-65
2023/11/20 01:37:15;;;;;;;;;;;20.80;37.20;;;;;;5116351;28;19969;-65
2023/11/20 01:39:42;;;;;;;;;;;20.80;37.20;;;;;;5114981;28;19923;-55
2023/11/20 01:42:10;;;;;;;;;;;20.80;37.20;;;;;;5115986;28;20453;-58
2023/11/20 01:44:37;;;;;;;;;;;20.80;37.20;;;;;;5116069;28;19923;-59
2023/11/20 01:47:05;;;;;;;;;;;20.80;37.20;;;;;;5116503;28;19966;-57
2023/11/20 01:49:32;;;;;;;;;;;20.80;37.20;;;;;;5115871;28;19969;-52
2023/11/20 01:51:59;;;;;;;;;;;20.80;37.70;;;;;;5116126;28;19924;-50
2023/11/20 01:54:27;;;;;;;;;;;20.80;37.20;;;;;;5116179;28;19947;-50
2023/11/20 01:56:54;;;;;;;;;;;20.80;37.30;;;;;;5115882;28;19979;-54
2023/11/20 01:59:21;;;;;;;;;;;20.80;37.20;;;;;;5115908;28;19923;-52
2023/11/20 02:01:48;;;;;;;;;;;20.80;37.20;;;;;;5097996;28;19930;-50
2023/11/20 02:04:16;;;;;;;;;;;20.70;37.20;;;;;;5115881;28;19932;-53
2023/11/20 02:06:43;;;;;;;;;;;20.80;37.20;;;;;;5115683;28;19946;-49
2023/11/20 02:09:10;;;;;;;;;;;20.80;37.30;;;;;;5115888;28;19924;-51
2023/11/20 02:11:37;;;;;;;;;;;20.80;37.20;;;;;;5115617;28;20056;-53
2023/11/20 02:14:04;;;;;;;;;;;20.70;37.20;;;;;;5115612;28;20021;-49
2023/11/20 02:16:31;;;;;;;;;;;20.80;37.20;;;;;;5115041;28;19963;-54
2023/11/20 02:19:09;;;;;;;;;;;20.70;37.20;;;;;;5115813;28;20275;-49
2023/11/20 02:21:36;;;;;;;;;;;20.80;37.20;;;;;;5115322;28;19923;-53
2023/11/20 02:24:04;;;;;;;;;;;20.80;37.20;;;;;;5115002;28;20399;-54
2023/11/20 02:26:47;;;;;;;;;;;20.80;37.20;;;;;;5115593;28;19963;-51
2023/11/20 02:29:24;;;;;;;;;;;20.70;37.20;;;;;;5114906;28;19923;-54
2023/11/20 02:31:51;;;;;;;;;;;20.80;37.20;;;;;;5115323;28;19924;-54
2023/11/20 02:34:18;;;;;;;;;;;20.80;37.30;;;;;;5114999;28;19924;-52
2023/11/20 02:36:45;;;;;;;;;;;20.70;37.20;;;;;;5114868;28;19924;-52
2023/11/20 02:39:12;;;;;;;;;;;20.70;37.20;;;;;;5115110;28;20288;-53
2023/11/20 02:41:40;;;;;;;;;;;20.70;37.20;;;;;;5115275;28;19923;-54
2023/11/20 02:44:08;;;;;;;;;;;20.70;37.20;;;;;;5114927;28;20330;-50
2023/11/20 02:46:35;;;;;;;;;;;20.70;37.20;;;;;;5115212;28;19924;-53
2023/11/20 02:49:02;;;;;;;;;;;20.70;37.20;;;;;;5114285;28;20388;-54
2023/11/20 02:51:30;;;;;;;;;;;20.70;37.20;;;;;;5114486;28;20458;-53
2023/11/20 02:53:57;;;;;;;;;;;20.70;37.20;;;;;;5096499;28;19978;-51
2023/11/20 02:56:25;;;;;;;;;;;20.70;37.20;;;;;;5114902;28;19986;-55
2023/11/20 02:58:52;;;;;;;;;;;20.70;37.30;;;;;;5114872;28;19985;-49
2023/11/20 03:01:19;;;;;;;;;;;20.70;37.50;;;;;;5115042;28;19924;-54
2023/11/20 03:03:46;;;;;;;;;;;20.70;37.30;;;;;;5096817;28;19923;-52
2023/11/20 03:06:14;;;;;;;;;;;20.70;37.30;;;;;;5114420;28;19928;-54
2023/11/20 03:08:41;;;;;;;;;;;20.70;37.30;;;;;;5114788;28;19977;-55
2023/11/20 03:11:07;;;;;;;;;;;20.70;37.30;;;;;;5096409;28;19928;-53
2023/11/20 03:13:39;;;;;;;;;;;20.70;37.30;;;;;;5114489;28;20364;-54
2023/11/20 03:16:07;;;;;;;;;;;20.70;37.30;;;;;;5114324;28;19927;-55
2023/11/20 03:18:36;;;;;;;;;;;20.70;37.30;;;;;;5114614;28;19969;-54
2023/11/20 03:21:04;;;;;;;;;;;20.70;37.30;;;;;;5114460;28;19924;-52
2023/11/20 03:23:31;;;;;;;;;;;20.70;37.20;;;;;;5114428;28;20399;-50
2023/11/20 03:25:57;;;;;;;;;;;20.70;37.20;;;;;;5114343;28;19967;-55
2023/11/20 03:28:24;;;;;;;;;;;20.70;37.20;;;;;;5114327;28;19927;-52
2023/11/20 03:30:51;;;;;;;;;;;20.70;37.20;;;;;;5114078;28;19969;-53
2023/11/20 03:33:18;;;;;;;;;;;20.70;37.20;;;;;;5114308;28;19924;-51
2023/11/20 03:35:45;;;;;;;;;;;20.70;37.20;;;;;;5114026;28;20403;-52
2023/11/20 03:38:12;;;;;;;;;;;20.70;37.20;;;;;;5113683;28;20034;-56
2023/11/20 03:40:39;;;;;;;;;;;20.80;37.30;;;;;;5113897;28;19923;-53
2023/11/20 03:43:06;;;;;;;;;;;20.70;37.20;;;;;;5114224;28;19946;-56
2023/11/20 03:45:33;;;;;;;;;;;20.70;37.20;;;;;;5113786;28;19923;-52
2023/11/20 03:48:00;;;;;;;;;;;20.70;37.20;;;;;;5114159;28;20425;-54
2023/11/20 03:50:27;;;;;;;;;;;20.70;37.20;;;;;;5113773;28;20398;-52
2023/11/20 03:52:54;;;;;;;;;;;20.70;37.20;;;;;;5114234;28;19955;-51
2023/11/20 03:55:21;;;;;;;;;;;20.70;37.20;;;;;;5113916;28;19924;-54
2023/11/20 03:57:48;;;;;;;;;;;20.70;37.20;;;;;;5113864;28;19986;-54
2023/11/20 04:00:16;;;;;;;;;;;20.70;37.20;;;;;;5114077;28;19947;-56
2023/11/20 04:02:43;;;;;;;;;;;20.70;37.30;;;;;;5115301;28;19966;-53
2023/11/20 04:05:10;;;;;;;;;;;20.70;37.20;;;;;;5118317;28;19924;-53
2023/11/20 04:07:37;;;;;;;;;;;20.70;37.20;;;;;;5117997;28;19969;-51
2023/11/20 04:10:05;;;;;;;;;;;20.70;37.20;;;;;;5117728;28;19930;-50
2023/11/20 04:12:32;;;;;;;;;;;20.70;37.30;;;;;;5118511;28;19924;-56
2023/11/20 04:14:59;;;;;;;;;;;20.70;37.30;;;;;;5118018;28;20007;-53
2023/11/20 04:17:26;;;;;;;;;;;20.70;37.30;;;;;;5118129;28;19931;-50
2023/11/20 04:19:54;;;;;;;;;;;20.70;37.30;;;;;;5117954;28;19993;-51
2023/11/20 04:22:23;;;;;;;;;;;20.70;37.40;;;;;;5117637;28;19959;-56
2023/11/20 04:24:50;;;;;;;;;;;20.70;37.20;;;;;;5117680;28;19954;-52
2023/11/20 04:27:17;;;;;;;;;;;20.70;37.30;;;;;;5117879;28;19978;-53
2023/11/20 04:29:44;;;;;;;;;;;20.70;37.30;;;;;;5117472;28;20338;-53
2023/11/20 04:32:11;;;;;;;;;;;20.70;37.20;;;;;;5117398;28;20418;-54
2023/11/20 04:34:39;;;;;;;;;;;20.70;37.20;;;;;;5117541;28;19978;-51
2023/11/20 04:37:06;;;;;;;;;;;20.70;37.30;;;;;;5117219;28;19963;-50
2023/11/20 04:39:32;;;;;;;;;;;20.70;37.20;;;;;;5117460;28;19966;-53
2023/11/20 04:41:59;;;;;;;;;;;20.70;37.10;;;;;;5117194;28;19930;-54
2023/11/20 04:44:26;;;;;;;;;;;20.70;37.50;;;;;;5117620;28;20265;-56
2023/11/20 04:46:53;;;;;;;;;;;20.80;36.90;;;;;;5117631;28;20362;-54
2023/11/20 04:49:21;;;;;;;;;;;20.80;36.80;;;;;;5117135;28;20299;-54
2023/11/20 04:51:48;;;;;;;;;;;20.80;36.70;;;;;;5117268;28;19924;-56
2023/11/20 04:54:15;;;;;;;;;;;20.80;36.70;;;;;;5117051;28;19977;-56
2023/11/20 04:56:43;;;;;;;;;;;20.80;36.60;;;;;;5117032;28;19924;-54
2023/11/20 04:59:11;;;;;;;;;;;20.80;36.60;;;;;;5116873;28;20380;-54
2023/11/20 05:01:40;;;;;;;;;;;20.80;36.60;;;;;;5099620;28;19924;-55
2023/11/20 05:04:07;;;;;;;;;;;20.80;36.60;;;;;;5116892;28;19928;-52
2023/11/20 05:06:34;;;;;;;;;;;20.80;36.60;;;;;;5116752;28;19924;-54
2023/11/20 05:09:02;;;;;;;;;;;20.80;36.60;;;;;;5116758;28;20018;-54
2023/11/20 05:11:29;;;;;;;;;;;20.80;36.60;;;;;;5116835;28;19931;-53
2023/11/20 05:13:59;;;;;;;;;;;20.80;36.60;;;;;;5116403;28;20351;-54
2023/11/20 05:16:28;;;;;;;;;;;20.80;36.50;;;;;;5116624;28;19985;-53
2023/11/20 05:18:56;;;;;;;;;;;20.80;36.50;;;;;;5137399;27;20085;-56
2023/11/20 05:21:23;;;;;;;;;;;20.80;36.50;;;;;;5137342;27;19924;-51
2023/11/20 05:23:50;;;;;;;;;;;20.80;36.40;;;;;;5136895;27;19927;-54
2023/11/20 05:26:18;;;;;;;;;;;20.80;36.40;;;;;;5136708;27;19967;-55
2023/11/20 05:28:45;;;;;;;;;;;20.80;36.40;;;;;;5137089;27;19977;-52
2023/11/20 05:31:12;;;;;;;;;;;20.80;36.30;;;;;;5137178;27;19927;-54
2023/11/20 05:33:39;;;;;;;;;;;20.90;36.40;;;;;;5136937;27;19924;-52
2023/11/20 05:36:06;;;;;;;;;;;20.80;36.30;;;;;;5136485;27;19923;-54
2023/11/20 05:38:35;;;;;;;;;;;20.90;36.40;;;;;;5136545;27;19931;-54
2023/11/20 05:41:02;;;;;;;;;;;20.90;36.30;;;;;;5136528;27;20383;-56
2023/11/20 05:43:29;;;;;;;;;;;20.90;36.30;;;;;;5136576;27;19924;-56
2023/11/20 05:45:56;;;;;;;;;;;20.90;36.20;;;;;;5129556;27;19973;-55
2023/11/20 05:48:23;;;;;;;;;;;20.90;36.20;;;;;;5108062;28;20273;-53
2023/11/20 05:50:50;;;;;;;;;;;20.90;36.20;;;;;;5115985;28;19970;-56
2023/11/20 05:53:17;;;;;;;;;;;20.90;36.20;;;;;;5115872;28;19924;-53
2023/11/20 05:55:45;;;;;;;;;;;20.90;36.20;;;;;;5115048;28;19986;-52
2023/11/20 05:58:12;;;;;;;;;;;20.90;36.20;;;;;;5115153;28;19928;-55
2023/11/20 06:00:39;;;;;;;;;;;20.90;36.20;;;;;;5115652;28;19924;-56
2023/11/20 06:03:06;;;;;;;;;;;20.90;36.10;;;;;;5110650;28;19986;-51
2023/11/20 06:05:33;;;;;;;;;;;21.00;36.20;;;;;;5104886;28;19935;-57
2023/11/20 06:08:00;;;;;;;;;;;21.00;36.50;;;;;;5105673;28;19924;-54
2023/11/20 06:10:28;;;;;;;;;;;21.00;36.70;;;;;;5126339;27;20422;-58
2023/11/20 06:12:55;;;;;;;;;;;21.00;36.90;;;;;;5118304;27;19928;-57
2023/11/20 06:15:23;;;;;;;;;;;21.00;37.10;;;;;;5119888;27;20352;-59
2023/11/20 06:17:50;;;;;;;;;;;21.00;37.30;;;;;;5101348;27;19936;-58
2023/11/20 06:20:17;;;;;;;;;;;21.00;37.30;;;;;;5107068;28;19973;-58
2023/11/20 06:22:44;;;;;;;;;;;21.10;37.40;;;;;;5103993;27;20013;-54
2023/11/20 06:25:16;;;;;;;;;;;21.10;37.40;;;;;;5127979;27;20323;-55
2023/11/20 06:27:43;;;;;;;;;;;21.10;37.40;;;;;;5116209;27;20027;-55
2023/11/20 06:30:11;;;;;;;;;;;21.10;37.30;;;;;;5108379;27;19972;-56
2023/11/20 06:32:38;;;;;;;;;;;21.20;37.30;;;;;;5099175;28;19997;-58
2023/11/20 06:35:05;;;;;;;;;;;21.20;37.60;;;;;;5106362;27;20021;-56
2023/11/20 06:37:32;;;;;;;;;;;21.20;37.80;;;;;;5107748;28;19924;-56
2023/11/20 06:39:59;;;;;;;;;;;21.30;38.00;;;;;;5111191;27;19924;-57
2023/11/20 06:42:27;;;;;;;;;;;21.30;37.90;;;;;;5104727;28;19928;-57
2023/11/20 06:44:54;;;;;;;;;;;21.40;38.00;;;;;;5097633;27;20384;-58
2023/11/20 06:47:21;;;;;;;;;;;21.40;37.90;;;;;;5108046;27;19932;-59
2023/11/20 06:49:49;;;;;;;;;;;21.50;37.70;;;;;;5101988;27;19953;-58
2023/11/20 06:52:16;;;;;;;;;;;21.50;37.50;;;;;;5106760;27;19969;-59
2023/11/20 06:54:44;;;;;;;;;;;21.50;37.40;;;;;;5106655;27;20324;-59
2023/11/20 06:57:11;;;;;;;;;;;21.60;37.50;;;;;;5106110;27;19924;-59
2023/11/20 06:59:39;;;;;;;;;;;21.60;37.40;;;;;;5085748;28;20025;-60
2023/11/20 07:02:21;;;;;;;;;;;21.60;37.40;;;;;;5102004;27;19954;-61
2023/11/20 07:04:49;;;;;;;;;;;21.70;37.50;;;;;;5103146;27;19959;-59
2023/11/20 07:07:17;;;;;;;;;;;21.70;37.60;;;;;;5107588;27;19924;-59
2023/11/20 07:09:45;;;;;;;;;;;21.70;37.70;;;;;;5101969;27;19923;-58
2023/11/20 07:12:12;;;;;;;;;;;21.80;38.00;;;;;;5087709;28;19927;-59
2023/11/20 07:14:39;;;;;;;;;;;21.80;38.10;;;;;;5098638;28;20635;-54
2023/11/20 07:17:06;;;;;;;;;;;21.90;38.20;;;;;;5105530;27;20326;-59
2023/11/20 07:19:35;;;;;;;;;;;21.90;38.30;;;;;;5102516;27;19928;-60
2023/11/20 07:22:02;;;;;;;;;;;22.00;38.30;;;;;;5114340;27;19931;-60
2023/11/20 07:24:29;;;;;;;;;;;22.00;38.40;;;;;;5107133;27;19963;-59
2023/11/20 07:26:56;;;;;;;;;;;22.10;38.60;;;;;;5109546;27;19928;-61
2023/11/20 07:29:24;;;;;;;;;;;22.10;38.40;;;;;;5104642;28;19932;-61
2023/11/20 07:31:51;;;;;;;;;;;22.10;38.40;;;;;;5105583;27;19932;-60
2023/11/20 07:34:20;;;;;;;;;;;22.20;38.30;;;;;;5104960;27;20372;-60
2023/11/20 07:36:47;;;;;;;;;;;22.20;38.20;;;;;;5118669;27;20359;-56
2023/11/20 07:39:14;;;;;;;;;;;22.20;38.20;;;;;;5107287;27;20019;-61
2023/11/20 07:41:43;;;;;;;;;;;22.30;38.30;;;;;;5109632;27;19981;-59
2023/11/20 07:44:10;;;;;;;;;;;22.40;38.30;;;;;;5107213;28;19924;-60
2023/11/20 07:46:37;;;;;;;;;;;22.40;38.30;;;;;;5112389;28;19932;-60
2023/11/20 07:49:04;;;;;;;;;;;22.40;38.10;;;;;;5105208;28;19930;-61
2023/11/20 07:51:32;;;;;;;;;;;22.50;38.20;;;;;;5113970;28;19924;-59
2023/11/20 07:53:59;;;;;;;;;;;22.50;38.20;;;;;;5114273;28;19924;-60
2023/11/20 07:56:27;;;;;;;;;;;22.50;38.20;;;;;;5095817;28;20495;-62
2023/11/20 07:58:54;;;;;;;;;;;22.50;38.10;;;;;;5101961;28;19986;-61
2023/11/20 08:01:23;;;;;;;;;;;22.60;38.20;;;;;;5101985;28;19939;-60
2023/11/20 08:03:50;;;;;;;;;;;22.60;38.10;;;;;;5104921;28;21298;-61
2023/11/20 08:06:19;;;;;;;;;;;22.70;38.20;;;;;;5104249;28;20398;-60
2023/11/20 08:08:47;;;;;;;;;;;22.70;38.10;;;;;;5105526;28;19931;-61
2023/11/20 08:11:14;;;;;;;;;;;22.70;38.00;;;;;;5104314;27;19954;-61
2023/11/20 08:13:41;;;;;;;;;;;22.70;37.90;;;;;;5106420;28;20026;-61
2023/11/20 08:16:09;;;;;;;;;;;22.70;37.90;;;;;;5098495;28;19958;-61
2023/11/20 08:18:39;;;;;;;;;;;22.80;38.00;;;;;;5088310;28;19942;-59
2023/11/20 08:21:06;;;;;;;;;;;22.80;37.90;;;;;;5102074;28;20296;-60
2023/11/20 08:23:34;;;;;;;;;;;22.80;37.80;;;;;;5097158;28;19959;-60
2023/11/20 08:26:05;;;;;;;;;;;22.80;37.90;;;;;;5118790;27;20034;-60
2023/11/20 08:28:32;;;;;;;;;;;22.90;38.10;;;;;;5103463;28;19969;-62
2023/11/20 08:30:59;;;;;;;;;;;23.00;38.40;;;;;;5107407;28;19924;-61
2023/11/20 08:33:28;;;;;;;;;;;23.00;38.40;;;;;;5108261;28;19930;-60
2023/11/20 08:35:57;;;;;;;;;;;23.10;38.40;;;;;;5101654;28;19927;-60
2023/11/20 08:38:24;;;;;;;;;;;23.10;38.40;;;;;;5103815;28;19973;-65
2023/11/20 08:40:51;;;;;;;;;;;23.10;38.30;;;;;;5097609;28;19927;-61
2023/11/20 08:43:18;;;;;;;;;;;23.10;38.10;;;;;;5101406;28;19930;-63
2023/11/20 08:45:46;;;;;;;;;;;23.10;38.00;;;;;;5104026;28;20394;-59
2023/11/20 08:48:13;;;;;;;;;;;23.20;38.00;;;;;;5105054;28;19935;-62
2023/11/20 08:50:42;;;;;;;;;;;23.10;37.80;;;;;;5111295;27;19924;-56
2023/11/20 08:53:09;;;;;;;;;;;23.20;37.80;;;;;;5104899;28;19944;-60
2023/11/20 08:55:36;;;;;;;;;;;23.20;38.00;;;;;;5114140;27;19928;-64
2023/11/20 08:58:04;;;;;;;;;;;23.20;38.00;;;;;;5107140;28;20600;-61
2023/11/20 09:00:31;;;;;;;;;;;23.30;38.10;;;;;;5100970;27;19942;-60
2023/11/20 09:02:58;;;;;;;;;;;23.30;38.00;;;;;;5102646;27;19931;-62
2023/11/20 09:05:26;;;;;;;;;;;23.30;38.00;;;;;;5105357;28;20370;-64
2023/11/20 09:07:54;;;;;;;;;;;23.30;37.60;;;;;;5106938;27;19977;-64
2023/11/20 09:10:23;;;;;;;;;;;23.30;37.40;;;;;;5110200;27;20404;-63
2023/11/20 09:12:50;;;;;;;;;;;23.40;37.40;;;;;;5104847;27;20007;-63
2023/11/20 09:15:19;;;;;;;;;;;23.40;37.30;;;;;;5105537;27;19934;-60
2023/11/20 09:17:46;;;;;;;;;;;23.40;37.10;;;;;;5111214;27;19944;-59
2023/11/20 09:20:18;;;;;;;;;;;23.40;37.10;;;;;;5109444;27;19931;-63
2023/11/20 09:22:46;;;;;;;;;;;23.40;37.10;;;;;;5108776;27;19924;-65
2023/11/20 09:25:13;;;;;;;;;;;23.40;37.10;;;;;;5106690;28;19932;-64
2023/11/20 09:27:41;;;;;;;;;;;23.50;37.30;;;;;;5104389;27;19934;-68
2023/11/20 09:30:12;;;;;;;;;;;23.50;37.20;;;;;;5106483;27;20229;-60
2023/11/20 09:32:40;;;;;;;;;;;23.50;37.30;;;;;;5106789;27;20350;-62
2023/11/20 09:35:15;;;;;;;;;;;23.60;37.30;;;;;;5109677;27;20291;-59
2023/11/20 09:37:43;;;;;;;;;;;23.60;37.20;;;;;;5091247;28;20381;-62
2023/11/20 09:40:11;;;;;;;;;;;23.60;37.10;;;;;;5107317;27;20334;-62
2023/11/20 09:42:40;;;;;;;;;;;23.60;37.10;;;;;;5106759;27;19931;-67
2023/11/20 09:45:17;;;;;;;;;;;23.60;37.20;;;;;;5102989;28;19963;-64
2023/11/20 09:47:47;;;;;;;;;;;23.70;37.20;;;;;;5105129;27;19978;-64
2023/11/20 09:50:14;;;;;;;;;;;23.70;37.30;;;;;;5103524;27;21168;-61
2023/11/20 09:52:42;;;;;;;;;;;23.70;37.20;;;;;;5106865;27;19931;-60
2023/11/20 09:55:09;;;;;;;;;;;23.70;37.10;;;;;;5111737;27;19932;-58
2023/11/20 09:57:36;;;;;;;;;;;23.70;37.10;;;;;;5103050;27;20482;-60
2023/11/20 10:00:06;;;;;;;;;;;23.70;37.00;;;;;;5104811;27;19932;-59
2023/11/20 10:02:34;;;;;;;;;;;23.70;36.90;;;;;;5104219;27;19938;-59
2023/11/20 10:05:01;;;;;;;;;;;23.80;36.90;;;;;;5100159;27;20015;-58
2023/11/20 10:07:30;;;;;;;;;;;23.80;36.90;;;;;;5110595;27;20405;-60
2023/11/20 10:09:57;;;;;;;;;;;23.80;36.90;;;;;;5102681;27;19975;-59
2023/11/20 10:12:26;;;;;;;;;;;23.80;36.80;;;;;;5100362;27;19928;-60
2023/11/20 10:14:53;;;;;;;;;;;23.80;36.70;;;;;;5109028;27;19932;-60
2023/11/20 10:17:21;;;;;;;;;;;23.80;36.60;;;;;;5101829;27;20040;-62
2023/11/20 10:19:49;;;;;;;;;;;23.80;36.60;;;;;;5106452;27;20419;-64
2023/11/20 10:22:19;;;;;;;;;;;23.80;36.50;;;;;;5104425;27;19928;-63
2023/11/20 10:24:48;;;;;;;;;;;23.80;36.50;;;;;;5107809;27;19936;-63
2023/11/20 10:27:17;;;;;;;;;;;23.80;36.50;;;;;;5107944;27;19923;-60
2023/11/20 10:29:44;;;;;;;;;;;23.80;36.50;;;;;;5106373;28;19993;-67
2023/11/20 10:32:11;;;;;;;;;;;23.80;36.50;;;;;;5105772;27;20401;-65
2023/11/20 10:34:39;;;;;;;;;;;23.80;36.40;;;;;;5106990;27;20367;-61
2023/11/20 10:37:08;;;;;;;;;;;23.80;36.40;;;;;;5106321;27;20261;-64
2023/11/20 10:39:37;;;;;;;;;;;23.80;36.40;;;;;;5093424;27;19938;-60
2023/11/20 10:42:04;;;;;;;;;;;23.80;36.30;;;;;;5085895;28;20015;-60
2023/11/20 10:44:35;;;;;;;;;;;23.80;36.30;;;;;;5100524;27;20004;-59
2023/11/20 10:47:05;;;;;;;;;;;23.80;36.30;;;;;;5110315;27;19928;-59
2023/11/20 10:49:33;;;;;;;;;;;23.80;36.30;;;;;;5091635;27;19927;-57
2023/11/20 10:52:05;;;;;;;;;;;23.80;36.30;;;;;;5100655;27;20011;-61
2023/11/20 10:54:38;;;;;;;;;;;23.80;36.40;;;;;;5105198;27;19931;-60
2023/11/20 10:57:06;;;;;;;;;;;23.80;36.30;;;;;;5109186;27;19963;-61
2023/11/20 10:59:37;;;;;;;;;;;23.80;36.30;;;;;;5100060;28;19942;-61
2023/11/20 11:02:06;;;;;;;;;;;23.80;36.30;;;;;;5108241;27;19996;-57
2023/11/20 11:04:36;;;;;;;;;;;23.80;36.30;;;;;;5088928;28;19928;-61
2023/11/20 11:07:05;;;;;;;;;;;23.80;36.40;;;;;;5106142;28;20022;-61
2023/11/20 11:09:33;;;;;;;;;;;23.90;36.50;;;;;;5104980;27;20019;-60
2023/11/20 11:12:01;;;;;;;;;;;23.90;36.50;;;;;;5108259;27;19923;-60
2023/11/20 11:14:28;;;;;;;;;;;23.90;36.50;;;;;;5107306;28;19931;-61
2023/11/20 11:17:06;;;;;;;;;;;23.90;36.60;;;;;;5102896;28;19927;-60
2023/11/20 11:19:37;;;;;;;;;;;23.90;36.60;;;;;;5106192;27;20387;-60
2023/11/20 11:22:10;;;;;;;;;;;23.90;36.60;;;;;;5108733;27;19967;-61
2023/11/20 11:24:40;;;;;;;;;;;23.90;36.70;;;;;;5104541;28;20070;-61
2023/11/20 11:27:15;;;;;;;;;;;23.90;36.70;;;;;;5104631;27;20466;-59
2023/11/20 11:29:45;;;;;;;;;;;23.90;36.60;;;;;;5105597;28;20023;-60
2023/11/20 11:32:28;;;;;;;;;;;23.90;36.60;;;;;;5097276;28;20408;-60
2023/11/20 11:35:13;;;;;;;;;;;23.80;36.50;;;;;;5103284;28;20372;-61
2023/11/20 11:37:50;;;;;;;;;;;23.80;36.40;;;;;;5107447;28;19978;-60
2023/11/20 11:40:25;;;;;;;;;;;23.80;36.40;;;;;;5101303;28;19932;-61
2023/11/20 11:42:55;;;;;;;;;;;23.80;36.40;;;;;;5105232;28;20010;-60
2023/11/20 11:45:27;;;;;;;;;;;23.80;36.50;;;;;;5102216;28;19935;-60
2023/11/20 11:47:55;;;;;;;;;;;23.70;36.60;;;;;;5104322;28;20026;-61
2023/11/20 11:50:22;;;;;;;;;;;23.80;36.70;;;;;;5103422;28;19931;-59
2023/11/20 11:52:50;;;;;;;;;;;23.70;36.70;;;;;;5099574;28;19931;-62
2023/11/20 11:55:21;;;;;;;;;;;23.70;36.70;;;;;;5102760;28;19932;-62
2023/11/20 11:57:54;;;;;;;;;;;23.70;36.80;;;;;;5100221;28;21133;-60
2023/11/20 12:00:21;;;;;;;;;;;23.70;36.90;;;;;;5099519;28;20130;-60
2023/11/20 12:02:52;;;;;;;;;;;23.80;37.10;;;;;;5102136;28;20018;-60
2023/11/20 12:05:20;;;;;;;;;;;23.70;37.10;;;;;;5104493;28;19974;-58
2023/11/20 12:07:50;;;;;;;;;;;23.80;37.30;;;;;;5101443;28;20371;-61
2023/11/20 12:10:37;;;;;;;;;;;23.80;37.30;;;;;;5106690;28;20505;-61
2023/11/20 12:13:06;;;;;;;;;;;23.80;37.30;;;;;;5106976;28;19966;-61
2023/11/20 12:15:37;;;;;;;;;;;23.80;37.30;;;;;;5104369;28;20422;-62
2023/11/20 12:18:06;;;;;;;;;;;23.80;37.30;;;;;;5106083;28;19943;-59
2023/11/20 12:20:33;;;;;;;;;;;23.80;37.40;;;;;;5109776;28;19931;-59
2023/11/20 12:23:07;;;;;;;;;;;23.80;37.50;;;;;;5104446;28;20046;-60
2023/11/20 12:25:36;;;;;;;;;;;23.80;37.40;;;;;;5094486;28;19963;-60
2023/11/20 12:28:09;;;;;;;;;;;23.80;37.50;;;;;;5109870;27;19932;-59
2023/11/20 12:30:37;;;;;;;;;;;23.80;37.50;;;;;;5109137;27;19999;-62
2023/11/20 12:33:04;;;;;;;;;;;23.80;37.40;;;;;;5118159;27;19924;-60
2023/11/20 12:35:32;;;;;;;;;;;23.80;37.40;;;;;;5106904;27;20011;-55
2023/11/20 12:37:59;;;;;;;;;;;23.80;37.40;;;;;;5110491;27;20000;-59
2023/11/20 12:40:26;;;;;;;;;;;23.80;37.50;;;;;;5110060;27;20326;-59
2023/11/20 12:42:53;;;;;;;;;;;23.80;37.70;;;;;;5108124;27;19936;-60
2023/11/20 12:45:23;;;;;;;;;;;23.80;37.70;;;;;;5109611;28;19924;-60
2023/11/20 12:47:50;;;;;;;;;;;23.80;37.70;;;;;;5108168;27;19935;-61
2023/11/20 12:50:19;;;;;;;;;;;23.80;37.70;;;;;;5111074;27;19924;-59
2023/11/20 12:52:47;;;;;;;;;;;23.80;37.70;;;;;;5110527;27;20010;-59
2023/11/20 12:55:16;;;;;;;;;;;23.80;37.80;;;;;;5091854;28;19963;-58
2023/11/20 12:57:43;;;;;;;;;;;23.80;37.80;;;;;;5087452;28;19990;-59
2023/11/20 13:00:10;;;;;;;;;;;23.80;37.80;;;;;;5111378;27;19932;-59
2023/11/20 13:02:38;;;;;;;;;;;23.80;37.70;;;;;;5109710;27;19923;-59
2023/11/20 13:05:10;;;;;;;;;;;23.90;37.80;;;;;;5108429;27;20339;-59
2023/11/20 13:07:37;;;;;;;;;;;23.80;37.70;;;;;;5111796;27;19924;-59
2023/11/20 13:10:11;;;;;;;;;;;23.90;37.70;;;;;;5110721;27;19939;-59
2023/11/20 13:12:40;;;;;;;;;;;23.90;37.80;;;;;;5107386;27;21753;-59
2023/11/20 13:15:08;;;;;;;;;;;23.90;37.90;;;;;;5108829;27;20354;-61
2023/11/20 13:17:35;;;;;;;;;;;23.90;37.80;;;;;;5109926;27;19977;-60
2023/11/20 13:20:06;;;;;;;;;;;23.90;37.90;;;;;;5103372;27;19999;-61
2023/11/20 13:22:46;;;;;;;;;;;23.90;37.80;;;;;;5106300;28;19970;-60
2023/11/20 13:25:20;;;;;;;;;;;23.90;37.80;;;;;;5101570;27;19931;-59
2023/11/20 13:27:47;;;;;;;;;;;23.80;37.90;;;;;;5109630;27;20030;-61
2023/11/20 13:30:19;;;;;;;;;;;23.90;38.10;;;;;;5106714;27;19931;-60
2023/11/20 13:32:47;;;;;;;;;;;23.90;38.40;;;;;;5106279;27;19923;-65
2023/11/20 13:35:14;;;;;;;;;;;23.90;38.50;;;;;;5109714;27;19932;-65
2023/11/20 13:37:41;;;;;;;;;;;23.80;38.40;;;;;;5107571;27;19932;-65
2023/11/20 13:40:11;;;;;;;;;;;23.90;38.20;;;;;;5104904;27;19923;-66
2023/11/20 13:42:39;;;;;;;;;;;23.80;38.00;;;;;;5106491;27;19938;-66
2023/11/20 13:45:08;;;;;;;;;;;23.80;38.00;;;;;;5105919;28;20371;-65
2023/11/20 13:47:38;;;;;;;;;;;23.70;37.80;;;;;;5110533;27;20006;-65
2023/11/20 13:50:11;;;;;;;;;;;23.70;37.80;;;;;;5107816;27;19996;-65
2023/11/20 13:52:38;;;;;;;;;;;23.70;37.70;;;;;;5102978;27;20445;-66
2023/11/20 13:55:06;;;;;;;;;;;23.70;37.60;;;;;;5104797;27;19928;-64
2023/11/20 13:57:33;;;;;;;;;;;23.70;37.60;;;;;;5105155;27;20015;-66
2023/11/20 14:00:00;;;;;;;;;;;23.70;37.50;;;;;;5112563;27;19928;-65
2023/11/20 14:02:27;;;;;;;;;;;23.70;37.50;;;;;;5105313;27;20028;-64
2023/11/20 14:04:54;;;;;;;;;;;23.60;37.50;;;;;;5088085;28;20014;-60
2023/11/20 14:07:22;;;;;;;;;;;23.60;37.50;;;;;;5103035;27;19939;-61
2023/11/20 14:09:49;;;;;;;;;;;23.60;37.70;;;;;;5106066;27;20387;-60
2023/11/20 14:12:16;;;;;;;;;;;23.60;37.90;;;;;;5085288;28;19924;-60
2023/11/20 14:14:43;;;;;;;;;;;23.50;38.10;;;;;;5089342;28;19934;-61
2023/11/20 14:17:14;;;;;;;;;;;23.60;38.50;;;;;;5106945;27;19935;-62
2023/11/20 14:19:41;;;;;;;;;;;23.50;38.40;;;;;;5112895;27;19931;-60
2023/11/20 14:22:09;;;;;;;;;;;23.50;38.60;;;;;;5109722;27;19971;-61